sensor_id;sensor_type;location;lat;lon;timestamp;temperature;humidity
64715;DHT22;51144;53.002;6.506;2023-04-15T00:00:12;7.60;99.90
64715;DHT22;51144;53.002;6.506;2023-04-15T00:02:38;7.50;99.90
64715;DHT22;51144;53.002;6.506;2023-04-15T00:05:04;7.50;99.90
64715;DHT22;51144;53.002;6.506;2023-04-15T00:07:30;7.50;99.90
64715;DHT22;51144;53.002;6.506;2023-04-15T00:09:56;7.50;99.90
64715;DHT22;51144;53.002;6.506;2023-04-15T00:12:26;7.50;99.90
64715;DHT22;51144;53.002;6.506;2023-04-15T00:14:52;7.40;99.90
64715;DHT22;51144;53.002;6.506;2023-04-15T00:17:19;7.40;99.90
64715;DHT22;51144;53.002;6.506;2023-04-15T00:19:44;7.40;99.90
64715;DHT22;51144;53.002;6.506;2023-04-15T00:22:11;7.40;99.90
64715;DHT22;51144;53.002;6.506;2023-04-15T00:24:37;7.30;99.90
64715;DHT22;51144;53.002;6.506;2023-04-15T00:27:03;7.30;99.90
64715;DHT22;51144;53.002;6.506;2023-04-15T00:29:29;7.20;99.90
64715;DHT22;51144;53.002;6.506;2023-04-15T00:31:55;7.20;99.90
64715;DHT22;51144;53.002;6.506;2023-04-15T00:34:21;7.20;99.90
64715;DHT22;51144;53.002;6.506;2023-04-15T00:36:48;7.20;99.90
64715;DHT22;51144;53.002;6.506;2023-04-15T00:39:14;7.20;99.90
64715;DHT22;51144;53.002;6.506;2023-04-15T00:41:41;7.10;99.90
64715;DHT22;51144;53.002;6.506;2023-04-15T00:44:07;7.10;99.90
64715;DHT22;51144;53.002;6.506;2023-04-15T00:46:35;7.10;99.90
64715;DHT22;51144;53.002;6.506;2023-04-15T00:49:03;7.10;99.90
64715;DHT22;51144;53.002;6.506;2023-04-15T00:51:29;7.10;99.90
64715;DHT22;51144;53.002;6.506;2023-04-15T00:53:58;7.00;99.90
64715;DHT22;51144;53.002;6.506;2023-04-15T00:56:25;7.00;99.90
64715;DHT22;51144;53.002;6.506;2023-04-15T00:58:51;7.00;99.90
64715;DHT22;51144;53.002;6.506;2023-04-15T01:01:21;7.00;99.90
64715;DHT22;51144;53.002;6.506;2023-04-15T01:03:50;7.00;99.90
64715;DHT22;51144;53.002;6.506;2023-04-15T01:06:16;7.00;99.90
64715;DHT22;51144;53.002;6.506;2023-04-15T01:08:42;6.90;99.90
64715;DHT22;51144;53.002;6.506;2023-04-15T01:11:08;6.90;99.90
64715;DHT22;51144;53.002;6.506;2023-04-15T01:13:35;6.90;99.90
64715;DHT22;51144;53.002;6.506;2023-04-15T01:16:01;6.90;99.90
64715;DHT22;51144;53.002;6.506;2023-04-15T01:18:28;6.90;99.90
64715;DHT22;51144;53.002;6.506;2023-04-15T01:20:54;6.80;99.90
64715;DHT22;51144;53.002;6.506;2023-04-15T01:23:20;6.80;99.90
64715;DHT22;51144;53.002;6.506;2023-04-15T01:25:48;6.80;99.90
64715;DHT22;51144;53.002;6.506;2023-04-15T01:28:14;6.80;99.90
64715;DHT22;51144;53.002;6.506;2023-04-15T01:30:39;6.80;99.90
64715;DHT22;51144;53.002;6.506;2023-04-15T01:33:05;6.70;99.90
64715;DHT22;51144;53.002;6.506;2023-04-15T01:35:31;6.70;99.90
64715;DHT22;51144;53.002;6.506;2023-04-15T01:38:07;6.60;99.90
64715;DHT22;51144;53.002;6.506;2023-04-15T01:40:35;6.60;99.90
64715;DHT22;51144;53.002;6.506;2023-04-15T01:43:02;6.60;99.90
64715;DHT22;51144;53.002;6.506;2023-04-15T01:45:28;6.60;99.90
64715;DHT22;51144;53.002;6.506;2023-04-15T01:47:54;6.60;99.90
64715;DHT22;51144;53.002;6.506;2023-04-15T01:50:20;6.50;99.90
64715;DHT22;51144;53.002;6.506;2023-04-15T01:52:46;6.50;99.90
64715;DHT22;51144;53.002;6.506;2023-04-15T01:55:13;6.40;99.90
64715;DHT22;51144;53.002;6.506;2023-04-15T01:57:39;6.40;99.90
64715;DHT22;51144;53.002;6.506;2023-04-15T02:00:05;6.40;99.90
64715;DHT22;51144;53.002;6.506;2023-04-15T02:02:33;6.40;99.90
64715;DHT22;51144;53.002;6.506;2023-04-15T02:05:00;6.30;99.90
64715;DHT22;51144;53.002;6.506;2023-04-15T02:07:26;6.30;99.90
64715;DHT22;51144;53.002;6.506;2023-04-15T02:09:53;6.30;99.90
64715;DHT22;51144;53.002;6.506;2023-04-15T02:12:19;6.20;99.90
64715;DHT22;51144;53.002;6.506;2023-04-15T02:14:44;6.20;99.90
64715;DHT22;51144;53.002;6.506;2023-04-15T02:17:10;6.20;99.90
64715;DHT22;51144;53.002;6.506;2023-04-15T02:19:36;6.10;99.90
64715;DHT22;51144;53.002;6.506;2023-04-15T02:22:01;6.10;99.90
64715;DHT22;51144;53.002;6.506;2023-04-15T02:24:28;6.00;99.90
64715;DHT22;51144;53.002;6.506;2023-04-15T02:26:55;6.00;99.90
64715;DHT22;51144;53.002;6.506;2023-04-15T02:29:20;5.90;99.90
64715;DHT22;51144;53.002;6.506;2023-04-15T02:31:47;6.00;99.90
64715;DHT22;51144;53.002;6.506;2023-04-15T02:34:13;5.90;99.90
64715;DHT22;51144;53.002;6.506;2023-04-15T02:36:38;5.90;99.90
64715;DHT22;51144;53.002;6.506;2023-04-15T02:39:05;5.90;99.90
64715;DHT22;51144;53.002;6.506;2023-04-15T02:41:31;5.90;99.90
64715;DHT22;51144;53.002;6.506;2023-04-15T02:43:56;5.80;99.90
64715;DHT22;51144;53.002;6.506;2023-04-15T02:46:22;5.80;99.90
64715;DHT22;51144;53.002;6.506;2023-04-15T02:48:48;5.80;99.90
64715;DHT22;51144;53.002;6.506;2023-04-15T02:51:15;5.80;99.90
64715;DHT22;51144;53.002;6.506;2023-04-15T02:53:41;5.80;99.90
64715;DHT22;51144;53.002;6.506;2023-04-15T02:56:07;5.80;99.90
64715;DHT22;51144;53.002;6.506;2023-04-15T02:58:34;5.80;99.90
64715;DHT22;51144;53.002;6.506;2023-04-15T03:01:00;5.70;99.90
64715;DHT22;51144;53.002;6.506;2023-04-15T03:03:26;5.60;99.90
64715;DHT22;51144;53.002;6.506;2023-04-15T03:05:53;5.60;99.90
64715;DHT22;51144;53.002;6.506;2023-04-15T03:08:18;5.60;99.90
64715;DHT22;51144;53.002;6.506;2023-04-15T03:10:45;5.60;99.90
64715;DHT22;51144;53.002;6.506;2023-04-15T03:13:11;5.60;99.90
64715;DHT22;51144;53.002;6.506;2023-04-15T03:15:37;5.50;99.90
64715;DHT22;51144;53.002;6.506;2023-04-15T03:18:03;5.60;99.90
64715;DHT22;51144;53.002;6.506;2023-04-15T03:20:28;5.60;99.90
64715;DHT22;51144;53.002;6.506;2023-04-15T03:22:54;5.60;99.90
64715;DHT22;51144;53.002;6.506;2023-04-15T03:25:19;5.50;99.90
64715;DHT22;51144;53.002;6.506;2023-04-15T03:27:46;5.50;99.90
64715;DHT22;51144;53.002;6.506;2023-04-15T03:30:11;5.50;99.90
64715;DHT22;51144;53.002;6.506;2023-04-15T03:32:38;5.50;99.90
64715;DHT22;51144;53.002;6.506;2023-04-15T03:35:03;5.50;99.90
64715;DHT22;51144;53.002;6.506;2023-04-15T03:37:29;5.40;99.90
64715;DHT22;51144;53.002;6.506;2023-04-15T03:39:55;5.40;99.90
64715;DHT22;51144;53.002;6.506;2023-04-15T03:42:20;5.40;99.90
64715;DHT22;51144;53.002;6.506;2023-04-15T03:44:46;5.30;99.90
64715;DHT22;51144;53.002;6.506;2023-04-15T03:47:12;5.30;99.90
64715;DHT22;51144;53.002;6.506;2023-04-15T03:49:37;5.30;99.90
64715;DHT22;51144;53.002;6.506;2023-04-15T03:52:03;5.30;99.90
64715;DHT22;51144;53.002;6.506;2023-04-15T03:54:28;5.30;99.90
64715;DHT22;51144;53.002;6.506;2023-04-15T03:56:54;5.30;99.90
64715;DHT22;51144;53.002;6.506;2023-04-15T03:59:21;5.30;99.90
64715;DHT22;51144;53.002;6.506;2023-04-15T04:01:46;5.20;99.90
64715;DHT22;51144;53.002;6.506;2023-04-15T04:04:12;5.20;99.90
64715;DHT22;51144;53.002;6.506;2023-04-15T04:06:38;5.10;99.90
64715;DHT22;51144;53.002;6.506;2023-04-15T04:09:04;5.10;99.90
64715;DHT22;51144;53.002;6.506;2023-04-15T04:11:29;5.10;99.90
64715;DHT22;51144;53.002;6.506;2023-04-15T04:13:56;5.10;99.90
64715;DHT22;51144;53.002;6.506;2023-04-15T04:16:21;5.10;99.90
64715;DHT22;51144;53.002;6.506;2023-04-15T04:18:47;5.10;99.90
64715;DHT22;51144;53.002;6.506;2023-04-15T04:21:12;5.00;99.90
64715;DHT22;51144;53.002;6.506;2023-04-15T04:23:38;5.00;99.90
64715;DHT22;51144;53.002;6.506;2023-04-15T04:26:04;5.00;99.90
64715;DHT22;51144;53.002;6.506;2023-04-15T04:28:30;5.00;99.90
64715;DHT22;51144;53.002;6.506;2023-04-15T04:30:55;5.00;99.90
64715;DHT22;51144;53.002;6.506;2023-04-15T04:33:21;4.90;99.90
64715;DHT22;51144;53.002;6.506;2023-04-15T04:35:47;4.90;99.90
64715;DHT22;51144;53.002;6.506;2023-04-15T04:38:12;4.80;99.90
64715;DHT22;51144;53.002;6.506;2023-04-15T04:40:38;4.80;99.90
64715;DHT22;51144;53.002;6.506;2023-04-15T04:43:04;4.80;99.90
64715;DHT22;51144;53.002;6.506;2023-04-15T04:45:29;4.80;99.90
64715;DHT22;51144;53.002;6.506;2023-04-15T04:47:55;4.70;99.90
64715;DHT22;51144;53.002;6.506;2023-04-15T04:50:20;4.70;99.90
64715;DHT22;51144;53.002;6.506;2023-04-15T04:52:46;4.70;99.90
64715;DHT22;51144;53.002;6.506;2023-04-15T04:55:12;4.70;99.90
64715;DHT22;51144;53.002;6.506;2023-04-15T04:57:37;4.60;99.90
64715;DHT22;51144;53.002;6.506;2023-04-15T05:00:07;4.60;99.90
64715;DHT22;51144;53.002;6.506;2023-04-15T05:02:33;4.60;99.90
64715;DHT22;51144;53.002;6.506;2023-04-15T05:04:59;4.70;99.90
64715;DHT22;51144;53.002;6.506;2023-04-15T05:07:25;4.70;99.90
64715;DHT22;51144;53.002;6.506;2023-04-15T05:09:51;4.70;99.90
64715;DHT22;51144;53.002;6.506;2023-04-15T05:12:16;4.80;99.90
64715;DHT22;51144;53.002;6.506;2023-04-15T05:14:42;4.90;99.90
64715;DHT22;51144;53.002;6.506;2023-04-15T05:17:08;4.90;99.90
64715;DHT22;51144;53.002;6.506;2023-04-15T05:19:34;5.00;99.90
64715;DHT22;51144;53.002;6.506;2023-04-15T05:22:00;5.10;99.90
64715;DHT22;51144;53.002;6.506;2023-04-15T05:24:25;5.20;99.90
64715;DHT22;51144;53.002;6.506;2023-04-15T05:26:51;5.30;99.90
64715;DHT22;51144;53.002;6.506;2023-04-15T05:29:17;5.40;99.90
64715;DHT22;51144;53.002;6.506;2023-04-15T05:31:43;5.40;99.90
64715;DHT22;51144;53.002;6.506;2023-04-15T05:34:08;5.50;99.90
64715;DHT22;51144;53.002;6.506;2023-04-15T05:36:36;5.60;99.90
64715;DHT22;51144;53.002;6.506;2023-04-15T05:39:01;5.60;99.90
64715;DHT22;51144;53.002;6.506;2023-04-15T05:41:27;5.70;99.90
64715;DHT22;51144;53.002;6.506;2023-04-15T05:43:52;5.80;99.90
64715;DHT22;51144;53.002;6.506;2023-04-15T05:46:18;6.00;99.90
64715;DHT22;51144;53.002;6.506;2023-04-15T05:48:44;6.30;99.90
64715;DHT22;51144;53.002;6.506;2023-04-15T05:51:10;6.40;99.90
64715;DHT22;51144;53.002;6.506;2023-04-15T05:53:35;6.60;99.90
64715;DHT22;51144;53.002;6.506;2023-04-15T05:56:01;6.70;99.90
64715;DHT22;51144;53.002;6.506;2023-04-15T05:58:27;6.70;99.90
64715;DHT22;51144;53.002;6.506;2023-04-15T06:00:52;6.90;99.90
64715;DHT22;51144;53.002;6.506;2023-04-15T06:03:18;6.90;99.90
64715;DHT22;51144;53.002;6.506;2023-04-15T06:05:43;7.00;99.90
64715;DHT22;51144;53.002;6.506;2023-04-15T06:08:09;7.10;99.90
64715;DHT22;51144;53.002;6.506;2023-04-15T06:10:36;7.20;99.90
64715;DHT22;51144;53.002;6.506;2023-04-15T06:13:02;7.30;99.90
64715;DHT22;51144;53.002;6.506;2023-04-15T06:15:29;7.40;99.90
64715;DHT22;51144;53.002;6.506;2023-04-15T06:17:55;7.40;99.90
64715;DHT22;51144;53.002;6.506;2023-04-15T06:20:20;7.40;99.90
64715;DHT22;51144;53.002;6.506;2023-04-15T06:22:46;7.30;99.90
64715;DHT22;51144;53.002;6.506;2023-04-15T06:25:12;7.40;99.90
64715;DHT22;51144;53.002;6.506;2023-04-15T06:27:38;7.50;99.90
64715;DHT22;51144;53.002;6.506;2023-04-15T06:30:04;7.60;99.90
64715;DHT22;51144;53.002;6.506;2023-04-15T06:32:31;7.70;99.90
64715;DHT22;51144;53.002;6.506;2023-04-15T06:34:57;7.90;99.90
64715;DHT22;51144;53.002;6.506;2023-04-15T06:37:23;8.10;99.90
64715;DHT22;51144;53.002;6.506;2023-04-15T06:39:48;8.20;99.90
64715;DHT22;51144;53.002;6.506;2023-04-15T06:42:14;8.40;99.90
64715;DHT22;51144;53.002;6.506;2023-04-15T06:44:40;8.40;99.90
64715;DHT22;51144;53.002;6.506;2023-04-15T06:47:06;8.50;99.90
64715;DHT22;51144;53.002;6.506;2023-04-15T06:49:33;8.60;99.90
64715;DHT22;51144;53.002;6.506;2023-04-15T06:51:59;8.60;99.90
64715;DHT22;51144;53.002;6.506;2023-04-15T06:54:25;8.60;99.90
64715;DHT22;51144;53.002;6.506;2023-04-15T06:56:51;8.60;99.90
64715;DHT22;51144;53.002;6.506;2023-04-15T06:59:17;8.50;99.90
64715;DHT22;51144;53.002;6.506;2023-04-15T07:01:43;8.50;99.90
64715;DHT22;51144;53.002;6.506;2023-04-15T07:04:09;8.50;99.90
64715;DHT22;51144;53.002;6.506;2023-04-15T07:06:35;8.50;99.90
64715;DHT22;51144;53.002;6.506;2023-04-15T07:09:01;8.50;99.90
64715;DHT22;51144;53.002;6.506;2023-04-15T07:11:27;8.50;99.90
64715;DHT22;51144;53.002;6.506;2023-04-15T07:13:53;8.50;99.90
64715;DHT22;51144;53.002;6.506;2023-04-15T07:16:19;8.60;99.90
64715;DHT22;51144;53.002;6.506;2023-04-15T07:18:44;8.60;99.90
64715;DHT22;51144;53.002;6.506;2023-04-15T07:21:10;8.70;99.90
64715;DHT22;51144;53.002;6.506;2023-04-15T07:23:36;8.70;99.90
64715;DHT22;51144;53.002;6.506;2023-04-15T07:26:02;8.80;99.90
64715;DHT22;51144;53.002;6.506;2023-04-15T07:28:28;8.90;99.90
64715;DHT22;51144;53.002;6.506;2023-04-15T07:30:54;9.00;99.90
64715;DHT22;51144;53.002;6.506;2023-04-15T07:33:22;9.10;99.90
64715;DHT22;51144;53.002;6.506;2023-04-15T07:35:48;9.10;99.90
64715;DHT22;51144;53.002;6.506;2023-04-15T07:38:13;9.10;99.90
64715;DHT22;51144;53.002;6.506;2023-04-15T07:40:39;9.10;99.90
64715;DHT22;51144;53.002;6.506;2023-04-15T07:43:05;9.10;99.90
64715;DHT22;51144;53.002;6.506;2023-04-15T07:45:31;9.10;99.90
64715;DHT22;51144;53.002;6.506;2023-04-15T07:47:57;9.10;99.90
64715;DHT22;51144;53.002;6.506;2023-04-15T07:50:23;9.10;99.90
64715;DHT22;51144;53.002;6.506;2023-04-15T07:52:49;9.10;99.90
64715;DHT22;51144;53.002;6.506;2023-04-15T07:55:15;9.10;99.90
64715;DHT22;51144;53.002;6.506;2023-04-15T07:57:43;9.20;99.90
64715;DHT22;51144;53.002;6.506;2023-04-15T08:00:10;9.10;99.90
64715;DHT22;51144;53.002;6.506;2023-04-15T08:02:35;9.20;99.90
64715;DHT22;51144;53.002;6.506;2023-04-15T08:05:02;9.20;99.90
64715;DHT22;51144;53.002;6.506;2023-04-15T08:07:29;9.20;99.90
64715;DHT22;51144;53.002;6.506;2023-04-15T08:09:54;9.20;99.90
64715;DHT22;51144;53.002;6.506;2023-04-15T08:12:20;9.30;99.90
64715;DHT22;51144;53.002;6.506;2023-04-15T08:14:46;9.30;99.90
64715;DHT22;51144;53.002;6.506;2023-04-15T08:17:12;9.40;99.90
64715;DHT22;51144;53.002;6.506;2023-04-15T08:19:39;9.50;99.90
64715;DHT22;51144;53.002;6.506;2023-04-15T08:22:05;9.50;99.90
64715;DHT22;51144;53.002;6.506;2023-04-15T08:24:30;9.50;99.90
64715;DHT22;51144;53.002;6.506;2023-04-15T08:26:56;9.50;99.90
64715;DHT22;51144;53.002;6.506;2023-04-15T08:29:22;9.40;99.90
64715;DHT22;51144;53.002;6.506;2023-04-15T08:31:48;9.30;99.90
64715;DHT22;51144;53.002;6.506;2023-04-15T08:34:14;9.30;99.90
64715;DHT22;51144;53.002;6.506;2023-04-15T08:36:40;9.30;99.90
64715;DHT22;51144;53.002;6.506;2023-04-15T08:39:06;9.30;99.90
64715;DHT22;51144;53.002;6.506;2023-04-15T08:42:09;9.30;99.90
64715;DHT22;51144;53.002;6.506;2023-04-15T08:44:29;9.40;99.90
64715;DHT22;51144;53.002;6.506;2023-04-15T08:46:56;9.50;99.90
64715;DHT22;51144;53.002;6.506;2023-04-15T08:49:26;9.50;99.90
64715;DHT22;51144;53.002;6.506;2023-04-15T08:51:53;9.50;99.90
64715;DHT22;51144;53.002;6.506;2023-04-15T08:54:21;9.50;99.90
64715;DHT22;51144;53.002;6.506;2023-04-15T08:56:47;9.40;99.90
64715;DHT22;51144;53.002;6.506;2023-04-15T08:59:13;9.40;99.90
64715;DHT22;51144;53.002;6.506;2023-04-15T09:01:41;9.30;99.90
64715;DHT22;51144;53.002;6.506;2023-04-15T09:04:07;9.30;99.90
64715;DHT22;51144;53.002;6.506;2023-04-15T09:06:33;9.20;99.90
64715;DHT22;51144;53.002;6.506;2023-04-15T09:08:58;9.20;99.90
64715;DHT22;51144;53.002;6.506;2023-04-15T09:11:24;9.20;99.90
64715;DHT22;51144;53.002;6.506;2023-04-15T09:13:50;9.10;99.90
64715;DHT22;51144;53.002;6.506;2023-04-15T09:16:16;9.20;99.90
64715;DHT22;51144;53.002;6.506;2023-04-15T09:18:42;9.10;99.90
64715;DHT22;51144;53.002;6.506;2023-04-15T09:21:15;9.10;99.90
64715;DHT22;51144;53.002;6.506;2023-04-15T09:23:54;9.10;99.90
64715;DHT22;51144;53.002;6.506;2023-04-15T09:26:32;9.10;99.90
64715;DHT22;51144;53.002;6.506;2023-04-15T09:29:03;9.20;99.90
64715;DHT22;51144;53.002;6.506;2023-04-15T09:31:30;9.20;99.90
64715;DHT22;51144;53.002;6.506;2023-04-15T09:33:55;9.20;99.90
64715;DHT22;51144;53.002;6.506;2023-04-15T09:36:21;9.20;99.90
64715;DHT22;51144;53.002;6.506;2023-04-15T09:38:57;9.30;99.90
64715;DHT22;51144;53.002;6.506;2023-04-15T09:41:24;9.30;99.90
64715;DHT22;51144;53.002;6.506;2023-04-15T09:43:50;9.30;99.90
64715;DHT22;51144;53.002;6.506;2023-04-15T09:46:16;9.30;99.90
64715;DHT22;51144;53.002;6.506;2023-04-15T09:48:41;9.30;99.90
64715;DHT22;51144;53.002;6.506;2023-04-15T09:51:07;9.40;99.90
64715;DHT22;51144;53.002;6.506;2023-04-15T09:53:34;9.50;99.90
64715;DHT22;51144;53.002;6.506;2023-04-15T09:56:01;9.50;99.90
64715;DHT22;51144;53.002;6.506;2023-04-15T09:58:30;9.50;99.90
64715;DHT22;51144;53.002;6.506;2023-04-15T10:00:57;9.60;99.90
64715;DHT22;51144;53.002;6.506;2023-04-15T10:03:29;9.60;99.90
64715;DHT22;51144;53.002;6.506;2023-04-15T10:05:57;9.70;99.90
64715;DHT22;51144;53.002;6.506;2023-04-15T10:08:28;9.90;99.90
64715;DHT22;51144;53.002;6.506;2023-04-15T10:10:54;10.00;99.90
64715;DHT22;51144;53.002;6.506;2023-04-15T10:13:25;10.10;99.90
64715;DHT22;51144;53.002;6.506;2023-04-15T10:16:28;10.10;99.90
64715;DHT22;51144;53.002;6.506;2023-04-15T10:19:00;10.10;99.90
64715;DHT22;51144;53.002;6.506;2023-04-15T10:21:27;10.00;99.90
64715;DHT22;51144;53.002;6.506;2023-04-15T10:23:53;10.00;99.90
64715;DHT22;51144;53.002;6.506;2023-04-15T10:26:19;9.90;99.90
64715;DHT22;51144;53.002;6.506;2023-04-15T10:28:45;9.90;99.90
64715;DHT22;51144;53.002;6.506;2023-04-15T10:31:14;10.00;99.90
64715;DHT22;51144;53.002;6.506;2023-04-15T10:33:42;10.00;99.90
64715;DHT22;51144;53.002;6.506;2023-04-15T10:36:08;9.90;99.90
64715;DHT22;51144;53.002;6.506;2023-04-15T10:38:41;10.00;99.90
64715;DHT22;51144;53.002;6.506;2023-04-15T10:41:20;10.10;99.90
64715;DHT22;51144;53.002;6.506;2023-04-15T10:46:44;10.10;99.90
64715;DHT22;51144;53.002;6.506;2023-04-15T10:49:14;10.10;99.90
64715;DHT22;51144;53.002;6.506;2023-04-15T10:51:46;10.00;99.90
64715;DHT22;51144;53.002;6.506;2023-04-15T10:57:05;9.90;99.90
64715;DHT22;51144;53.002;6.506;2023-04-15T10:59:58;10.00;99.90
64715;DHT22;51144;53.002;6.506;2023-04-15T11:02:47;9.90;99.90
64715;DHT22;51144;53.002;6.506;2023-04-15T11:05:17;9.80;99.90
64715;DHT22;51144;53.002;6.506;2023-04-15T11:12:43;9.90;99.90
64715;DHT22;51144;53.002;6.506;2023-04-15T11:18:22;9.80;99.90
64715;DHT22;51144;53.002;6.506;2023-04-15T11:20:57;9.80;99.90
64715;DHT22;51144;53.002;6.506;2023-04-15T11:23:42;9.80;99.90
64715;DHT22;51144;53.002;6.506;2023-04-15T11:26:11;9.80;99.90
64715;DHT22;51144;53.002;6.506;2023-04-15T11:28:39;9.70;99.90
64715;DHT22;51144;53.002;6.506;2023-04-15T11:31:10;9.60;99.90
64715;DHT22;51144;53.002;6.506;2023-04-15T11:33:36;9.70;99.90
64715;DHT22;51144;53.002;6.506;2023-04-15T11:36:02;9.70;99.90
64715;DHT22;51144;53.002;6.506;2023-04-15T11:38:28;9.70;99.90
64715;DHT22;51144;53.002;6.506;2023-04-15T11:40:55;9.80;99.90
64715;DHT22;51144;53.002;6.506;2023-04-15T11:43:22;9.80;99.90
64715;DHT22;51144;53.002;6.506;2023-04-15T11:45:59;9.80;99.90
64715;DHT22;51144;53.002;6.506;2023-04-15T11:48:31;9.80;99.90
64715;DHT22;51144;53.002;6.506;2023-04-15T11:50:58;9.80;99.90
64715;DHT22;51144;53.002;6.506;2023-04-15T11:53:36;9.80;99.90
64715;DHT22;51144;53.002;6.506;2023-04-15T11:56:02;9.80;99.90
64715;DHT22;51144;53.002;6.506;2023-04-15T11:58:29;9.90;99.90
64715;DHT22;51144;53.002;6.506;2023-04-15T12:01:00;10.10;99.90
64715;DHT22;51144;53.002;6.506;2023-04-15T12:03:26;10.20;99.90
64715;DHT22;51144;53.002;6.506;2023-04-15T12:06:12;10.20;99.90
64715;DHT22;51144;53.002;6.506;2023-04-15T12:11:28;10.20;99.90
64715;DHT22;51144;53.002;6.506;2023-04-15T12:13:56;10.20;99.90
64715;DHT22;51144;53.002;6.506;2023-04-15T12:16:22;10.10;99.90
64715;DHT22;51144;53.002;6.506;2023-04-15T12:18:53;10.10;99.90
64715;DHT22;51144;53.002;6.506;2023-04-15T12:21:25;10.00;99.90
64715;DHT22;51144;53.002;6.506;2023-04-15T12:23:55;10.00;99.90
64715;DHT22;51144;53.002;6.506;2023-04-15T12:26:28;10.00;99.90
64715;DHT22;51144;53.002;6.506;2023-04-15T12:29:05;10.00;99.90
64715;DHT22;51144;53.002;6.506;2023-04-15T12:31:32;10.00;99.90
64715;DHT22;51144;53.002;6.506;2023-04-15T12:33:59;9.90;99.90
64715;DHT22;51144;53.002;6.506;2023-04-15T12:36:26;9.90;99.90
64715;DHT22;51144;53.002;6.506;2023-04-15T12:38:52;9.90;99.90
64715;DHT22;51144;53.002;6.506;2023-04-15T12:41:18;9.90;99.90
64715;DHT22;51144;53.002;6.506;2023-04-15T12:43:44;9.90;99.90
64715;DHT22;51144;53.002;6.506;2023-04-15T12:46:11;9.90;99.90
64715;DHT22;51144;53.002;6.506;2023-04-15T12:48:37;9.90;99.90
64715;DHT22;51144;53.002;6.506;2023-04-15T12:51:02;9.80;99.90
64715;DHT22;51144;53.002;6.506;2023-04-15T12:53:28;9.80;99.90
64715;DHT22;51144;53.002;6.506;2023-04-15T12:55:54;9.80;99.90
64715;DHT22;51144;53.002;6.506;2023-04-15T12:58:20;9.80;99.90
64715;DHT22;51144;53.002;6.506;2023-04-15T13:00:46;9.80;99.90
64715;DHT22;51144;53.002;6.506;2023-04-15T13:03:12;9.80;99.90
64715;DHT22;51144;53.002;6.506;2023-04-15T13:05:38;9.80;99.90
64715;DHT22;51144;53.002;6.506;2023-04-15T13:08:04;9.80;99.90
64715;DHT22;51144;53.002;6.506;2023-04-15T13:10:30;9.80;99.90
64715;DHT22;51144;53.002;6.506;2023-04-15T13:12:56;9.80;99.90
64715;DHT22;51144;53.002;6.506;2023-04-15T13:15:22;9.80;99.90
64715;DHT22;51144;53.002;6.506;2023-04-15T13:17:49;9.80;99.90
64715;DHT22;51144;53.002;6.506;2023-04-15T13:20:15;9.70;99.90
64715;DHT22;51144;53.002;6.506;2023-04-15T13:22:40;9.60;99.90
64715;DHT22;51144;53.002;6.506;2023-04-15T13:25:07;9.70;99.90
64715;DHT22;51144;53.002;6.506;2023-04-15T13:27:33;9.70;99.90
64715;DHT22;51144;53.002;6.506;2023-04-15T13:29:59;9.70;99.90
64715;DHT22;51144;53.002;6.506;2023-04-15T13:32:25;9.60;99.90
64715;DHT22;51144;53.002;6.506;2023-04-15T13:34:51;9.70;99.90
64715;DHT22;51144;53.002;6.506;2023-04-15T13:37:16;9.70;99.90
64715;DHT22;51144;53.002;6.506;2023-04-15T13:39:42;9.60;99.90
64715;DHT22;51144;53.002;6.506;2023-04-15T13:42:08;9.70;99.90
64715;DHT22;51144;53.002;6.506;2023-04-15T13:44:34;9.60;99.90
64715;DHT22;51144;53.002;6.506;2023-04-15T13:47:00;9.70;99.90
64715;DHT22;51144;53.002;6.506;2023-04-15T13:49:25;9.60;99.90
64715;DHT22;51144;53.002;6.506;2023-04-15T13:51:51;9.60;99.90
64715;DHT22;51144;53.002;6.506;2023-04-15T13:54:17;9.60;99.90
64715;DHT22;51144;53.002;6.506;2023-04-15T13:56:42;9.60;99.90
64715;DHT22;51144;53.002;6.506;2023-04-15T13:59:08;9.50;99.90
64715;DHT22;51144;53.002;6.506;2023-04-15T14:01:34;9.50;99.90
64715;DHT22;51144;53.002;6.506;2023-04-15T14:04:00;9.50;99.90
64715;DHT22;51144;53.002;6.506;2023-04-15T14:06:27;9.40;99.90
64715;DHT22;51144;53.002;6.506;2023-04-15T14:08:54;9.40;99.90
64715;DHT22;51144;53.002;6.506;2023-04-15T14:11:19;9.40;99.90
64715;DHT22;51144;53.002;6.506;2023-04-15T14:13:45;9.40;99.90
64715;DHT22;51144;53.002;6.506;2023-04-15T14:16:11;9.40;99.90
64715;DHT22;51144;53.002;6.506;2023-04-15T14:18:36;9.40;99.90
64715;DHT22;51144;53.002;6.506;2023-04-15T14:21:02;9.30;99.90
64715;DHT22;51144;53.002;6.506;2023-04-15T14:23:28;9.40;99.90
64715;DHT22;51144;53.002;6.506;2023-04-15T14:25:53;9.40;99.90
64715;DHT22;51144;53.002;6.506;2023-04-15T14:28:19;9.50;99.90
64715;DHT22;51144;53.002;6.506;2023-04-15T14:30:45;9.40;99.90
64715;DHT22;51144;53.002;6.506;2023-04-15T14:33:11;9.40;99.90
64715;DHT22;51144;53.002;6.506;2023-04-15T14:35:37;9.40;99.90
64715;DHT22;51144;53.002;6.506;2023-04-15T14:38:02;9.30;99.90
64715;DHT22;51144;53.002;6.506;2023-04-15T14:40:30;9.30;99.90
64715;DHT22;51144;53.002;6.506;2023-04-15T14:42:56;9.20;99.90
64715;DHT22;51144;53.002;6.506;2023-04-15T14:45:21;9.20;99.90
64715;DHT22;51144;53.002;6.506;2023-04-15T14:47:47;9.30;99.90
64715;DHT22;51144;53.002;6.506;2023-04-15T14:50:14;9.30;99.90
64715;DHT22;51144;53.002;6.506;2023-04-15T14:52:39;9.30;99.90
64715;DHT22;51144;53.002;6.506;2023-04-15T14:55:07;9.30;99.90
64715;DHT22;51144;53.002;6.506;2023-04-15T14:57:33;9.30;99.90
64715;DHT22;51144;53.002;6.506;2023-04-15T14:59:58;9.30;99.90
64715;DHT22;51144;53.002;6.506;2023-04-15T15:02:24;9.20;99.90
64715;DHT22;51144;53.002;6.506;2023-04-15T15:04:50;9.20;99.90
64715;DHT22;51144;53.002;6.506;2023-04-15T15:07:15;9.20;99.90
64715;DHT22;51144;53.002;6.506;2023-04-15T15:09:41;9.20;99.90
64715;DHT22;51144;53.002;6.506;2023-04-15T15:12:07;9.20;99.90
64715;DHT22;51144;53.002;6.506;2023-04-15T15:14:32;9.20;99.90
64715;DHT22;51144;53.002;6.506;2023-04-15T15:16:58;9.20;99.90
64715;DHT22;51144;53.002;6.506;2023-04-15T15:19:24;9.10;99.90
64715;DHT22;51144;53.002;6.506;2023-04-15T15:21:50;9.10;99.90
64715;DHT22;51144;53.002;6.506;2023-04-15T15:24:15;9.10;99.90
64715;DHT22;51144;53.002;6.506;2023-04-15T15:26:41;9.10;99.90
64715;DHT22;51144;53.002;6.506;2023-04-15T15:29:06;9.10;99.90
64715;DHT22;51144;53.002;6.506;2023-04-15T15:31:34;9.00;99.90
64715;DHT22;51144;53.002;6.506;2023-04-15T15:34:00;9.00;99.90
64715;DHT22;51144;53.002;6.506;2023-04-15T15:36:26;8.90;99.90
64715;DHT22;51144;53.002;6.506;2023-04-15T15:38:52;8.90;99.90
64715;DHT22;51144;53.002;6.506;2023-04-15T15:41:17;8.90;99.90
64715;DHT22;51144;53.002;6.506;2023-04-15T15:43:43;8.90;99.90
64715;DHT22;51144;53.002;6.506;2023-04-15T15:46:09;8.90;99.90
64715;DHT22;51144;53.002;6.506;2023-04-15T15:48:34;8.90;99.90
64715;DHT22;51144;53.002;6.506;2023-04-15T15:51:00;8.90;99.90
64715;DHT22;51144;53.002;6.506;2023-04-15T15:53:26;8.90;99.90
64715;DHT22;51144;53.002;6.506;2023-04-15T15:55:51;8.80;99.90
64715;DHT22;51144;53.002;6.506;2023-04-15T15:58:17;8.80;99.90